Aviation Digital Data Service (ADDS)

Output produced by METARs form (2042 UTC 19 January 2019)
found at http://www.aviationweather.gov/metar/data/
 
KSAV 191953Z 17014G25KT 10SM FEW150 SCT200 23/10 A2988 RMK AO2 SLP117 T02280100
KSAV 191739Z 1918/2018 18010KT P6SM BKN060 
     FM191900 18013G20KT P6SM SCT060 
     FM200600 19015G26KT 6SM -SHRA OVC020 
     FM200800 22013G22KT 4SM SHRA BR OVC015 
     FM201300 28015G25KT P6SM BKN035
       
KSVN 191956Z AUTO 18015G20KT 10SM CLR 22/10 A2986 RMK AO2 SLP114 T02200098 FZRANO $
TAF KSVN 191300Z 1913/2019 VRB06KT 9999 SCT180 QNH2988INS 
     BECMG 1914/1915 18009KT 9999 SCT020 BKN030 QNH2982INS 
     BECMG 1923/1924 18012KT 9999 FEW015 SCT100 WS020/20060KT QNH2977INS 
     BECMG 2003/2004 18015G20KT 9000 -SHRA SCT015 WS020/20060KT 540203
QNH2968INS 
     BECMG 2006/2007 19020G35KT 8000 -RA SCT015 BKN030 540203 QNH2963INS 
     BECMG 2010/2011 19015G30KT 9999 NSW BKN015 OVC030 540203 QNH2958INS
TX20/1921Z TN09/1913Z
       
KLHW 191956Z AUTO 19007G14KT 10SM CLR 23/10 A2985 RMK AO2 SLP111 T02280102 $
KTBR 192035Z AUTO 19012G19KT 10SM CLR 23/10 A2982 RMK AO2 T02250100
KVDI 192035Z AUTO 18013G19KT 10SM CLR 24/06 A2980 RMK AO2
KJYL 192035Z AUTO 20007G14KT 150V240 10SM CLR 23/11 A2984 RMK AO2 T02300111
KDBN 192015Z AUTO 21014G24KT 10SM CLR 22/08 A2978 RMK AO2
KJES 192038Z AUTO 17008KT 10SM CLR 24/11 A2984 RMK AO2
KSSI 191953Z AUTO 16007KT 10SM CLR 18/13 A2989 RMK AO2 SLP123 T01830128
KSSI 192037Z 1921/2018 16010KT P6SM SCT040 BKN250 
     FM192200 18011G17KT P6SM SCT040 BKN080 OVC250 
     FM200300 19013G21KT P6SM -SHRA SCT025 BKN035 OVC070 
     FM200600 20014G24KT 3SM SHRA VCTS BKN015CB OVC050 
     FM200900 25014G24KT 6SM -SHRA OVC015 
     FM201400 27016G25KT P6SM VCSH OVC040
       
KBQK 192035Z AUTO 16010KT 10SM CLR 20/13 A2988 RMK AO2
KAYS 192035Z AUTO 20012G18KT 10SM CLR 24/05 A2982 RMK AO2 T02380053
KNBC 191956Z 18013G21KT 10SM CLR 22/12 A2989 RMK AO2 SLP121 T02170117
TAF AMD KNBC 1915/2015 18008KT 9999 BKN060 OVC080 QNH2967INS 
     TEMPO 1915/1921 SCT050 BKN130 
     FM200400 18012G18KT 4800 SHRA BR SCT015 BKN020 OVC030 QNH2952INS T18/1919Z
T10/2015Z
       
KHXD 191950Z 19009G19KT 10SM SCT075 20/12 A2991